sensor_id;sensor_type;location;lat;lon;timestamp;pressure;altitude;pressure_sealevel;temperature;humidity
76201;BME280;64981;52.930;9.266;2024-02-21T00:00:15;101729.09;;;9.09;78.34
76201;BME280;64981;52.930;9.266;2024-02-21T00:02:41;101719.16;;;9.13;77.87
76201;BME280;64981;52.930;9.266;2024-02-21T00:05:07;101716.84;;;8.99;78.82
76201;BME280;64981;52.930;9.266;2024-02-21T00:07:32;101717.19;;;9.05;77.98
76201;BME280;64981;52.930;9.266;2024-02-21T00:09:58;101710.75;;;8.98;78.27
76201;BME280;64981;52.930;9.266;2024-02-21T00:12:24;101701.81;;;9.10;78.03
76201;BME280;64981;52.930;9.266;2024-02-21T00:14:49;101696.91;;;9.06;78.34
76201;BME280;64981;52.930;9.266;2024-02-21T00:17:15;101697.75;;;9.06;78.44
76201;BME280;64981;52.930;9.266;2024-02-21T00:19:41;101683.34;;;9.10;78.22
76201;BME280;64981;52.930;9.266;2024-02-21T00:22:06;101685.28;;;9.08;77.91
76201;BME280;64981;52.930;9.266;2024-02-21T00:24:32;101673.38;;;8.93;78.65
76201;BME280;64981;52.930;9.266;2024-02-21T00:26:57;101682.44;;;9.00;78.73
76201;BME280;64981;52.930;9.266;2024-02-21T00:29:23;101690.09;;;9.03;78.62
76201;BME280;64981;52.930;9.266;2024-02-21T00:31:49;101683.72;;;9.06;78.10
76201;BME280;64981;52.930;9.266;2024-02-21T00:34:14;101680.84;;;8.88;79.21
76201;BME280;64981;52.930;9.266;2024-02-21T00:36:40;101683.44;;;8.99;78.97
76201;BME280;64981;52.930;9.266;2024-02-21T00:39:06;101667.41;;;8.91;78.67
76201;BME280;64981;52.930;9.266;2024-02-21T00:41:32;101681.16;;;8.95;78.79
76201;BME280;64981;52.930;9.266;2024-02-21T00:43:58;101657.72;;;8.92;78.73
76201;BME280;64981;52.930;9.266;2024-02-21T00:46:24;101666.53;;;9.02;78.84
76201;BME280;64981;52.930;9.266;2024-02-21T00:48:49;101666.91;;;8.97;78.67
76201;BME280;64981;52.930;9.266;2024-02-21T00:51:16;101667.63;;;8.99;78.64
76201;BME280;64981;52.930;9.266;2024-02-21T00:53:42;101642.09;;;9.00;78.53
76201;BME280;64981;52.930;9.266;2024-02-21T00:56:08;101656.94;;;9.01;78.59
76201;BME280;64981;52.930;9.266;2024-02-21T00:58:34;101658.63;;;9.02;78.78
76201;BME280;64981;52.930;9.266;2024-02-21T01:01:01;101617.56;;;8.99;77.55
76201;BME280;64981;52.930;9.266;2024-02-21T01:03:27;101658.56;;;8.92;79.27
76201;BME280;64981;52.930;9.266;2024-02-21T01:05:52;101659.78;;;8.88;79.69
76201;BME280;64981;52.930;9.266;2024-02-21T01:08:18;101646.47;;;8.90;79.33
76201;BME280;64981;52.930;9.266;2024-02-21T01:10:43;101649.63;;;9.04;78.44
76201;BME280;64981;52.930;9.266;2024-02-21T01:13:09;101640.03;;;9.03;78.43
76201;BME280;64981;52.930;9.266;2024-02-21T01:15:35;101641.19;;;9.10;77.94
76201;BME280;64981;52.930;9.266;2024-02-21T01:18:01;101643.25;;;9.07;78.13
76201;BME280;64981;52.930;9.266;2024-02-21T01:20:27;101632.69;;;9.07;77.72
76201;BME280;64981;52.930;9.266;2024-02-21T01:22:52;101642.72;;;9.13;77.95
76201;BME280;64981;52.930;9.266;2024-02-21T01:25:18;101634.63;;;9.05;78.27
76201;BME280;64981;52.930;9.266;2024-02-21T01:27:43;101638.44;;;8.91;78.93
76201;BME280;64981;52.930;9.266;2024-02-21T01:30:09;101633.66;;;9.06;78.30
76201;BME280;64981;52.930;9.266;2024-02-21T01:32:36;101637.38;;;9.03;78.39
76201;BME280;64981;52.930;9.266;2024-02-21T01:35:02;101627.00;;;9.02;78.36
76201;BME280;64981;52.930;9.266;2024-02-21T01:37:27;101622.34;;;9.15;77.87
76201;BME280;64981;52.930;9.266;2024-02-21T01:39:53;101613.72;;;9.13;77.72
76201;BME280;64981;52.930;9.266;2024-02-21T01:42:18;101606.53;;;9.15;77.58
76201;BME280;64981;52.930;9.266;2024-02-21T01:44:44;101611.03;;;9.03;77.98
76201;BME280;64981;52.930;9.266;2024-02-21T01:47:10;101595.69;;;9.08;77.83
76201;BME280;64981;52.930;9.266;2024-02-21T01:49:40;101582.25;;;9.11;76.93
76201;BME280;64981;52.930;9.266;2024-02-21T01:52:07;101580.72;;;9.18;77.29
76201;BME280;64981;52.930;9.266;2024-02-21T01:54:34;101582.97;;;9.23;77.10
76201;BME280;64981;52.930;9.266;2024-02-21T01:57:00;101579.63;;;9.11;77.13
76201;BME280;64981;52.930;9.266;2024-02-21T01:59:26;101541.31;;;9.07;76.88
76201;BME280;64981;52.930;9.266;2024-02-21T02:01:52;101558.78;;;9.08;77.50
76201;BME280;64981;52.930;9.266;2024-02-21T02:04:20;101556.44;;;9.05;77.76
76201;BME280;64981;52.930;9.266;2024-02-21T02:06:46;101545.38;;;9.21;76.94
76201;BME280;64981;52.930;9.266;2024-02-21T02:09:11;101540.88;;;9.12;77.03
76201;BME280;64981;52.930;9.266;2024-02-21T02:11:37;101538.66;;;9.07;77.48
76201;BME280;64981;52.930;9.266;2024-02-21T02:14:03;101527.84;;;9.10;77.36
76201;BME280;64981;52.930;9.266;2024-02-21T02:16:28;101522.63;;;9.20;76.82
76201;BME280;64981;52.930;9.266;2024-02-21T02:18:54;101529.38;;;9.13;76.91
76201;BME280;64981;52.930;9.266;2024-02-21T02:21:29;101516.06;;;9.05;77.30
76201;BME280;64981;52.930;9.266;2024-02-21T02:23:57;101519.53;;;9.05;77.17
76201;BME280;64981;52.930;9.266;2024-02-21T02:26:22;101514.59;;;8.91;77.56
76201;BME280;64981;52.930;9.266;2024-02-21T02:28:48;101498.50;;;8.85;78.23
76201;BME280;64981;52.930;9.266;2024-02-21T02:31:13;101486.06;;;8.96;77.51
76201;BME280;64981;52.930;9.266;2024-02-21T02:33:39;101479.78;;;8.88;78.15
76201;BME280;64981;52.930;9.266;2024-02-21T02:36:05;101478.69;;;8.90;78.04
76201;BME280;64981;52.930;9.266;2024-02-21T02:38:31;101475.78;;;8.93;77.41
76201;BME280;64981;52.930;9.266;2024-02-21T02:40:57;101468.91;;;9.02;77.32
76201;BME280;64981;52.930;9.266;2024-02-21T02:43:22;101470.00;;;8.99;77.37
76201;BME280;64981;52.930;9.266;2024-02-21T02:45:48;101459.16;;;8.93;77.69
76201;BME280;64981;52.930;9.266;2024-02-21T02:48:13;101456.66;;;8.91;77.86
76201;BME280;64981;52.930;9.266;2024-02-21T02:50:39;101453.06;;;8.92;77.34
76201;BME280;64981;52.930;9.266;2024-02-21T02:53:04;101449.44;;;8.93;77.37
76201;BME280;64981;52.930;9.266;2024-02-21T02:55:30;101468.31;;;8.98;77.31
76201;BME280;64981;52.930;9.266;2024-02-21T02:57:55;101477.63;;;9.02;77.06
76201;BME280;64981;52.930;9.266;2024-02-21T03:00:22;101479.25;;;8.94;77.40
76201;BME280;64981;52.930;9.266;2024-02-21T03:02:49;101479.97;;;8.96;77.70
76201;BME280;64981;52.930;9.266;2024-02-21T03:05:19;101462.63;;;9.03;76.83
76201;BME280;64981;52.930;9.266;2024-02-21T03:07:45;101462.09;;;8.99;77.16
76201;BME280;64981;52.930;9.266;2024-02-21T03:10:11;101463.31;;;8.95;77.44
76201;BME280;64981;52.930;9.266;2024-02-21T03:12:37;101461.69;;;9.04;77.24
76201;BME280;64981;52.930;9.266;2024-02-21T03:15:04;101451.66;;;8.88;77.61
76201;BME280;64981;52.930;9.266;2024-02-21T03:17:31;101452.28;;;9.11;76.89
76201;BME280;64981;52.930;9.266;2024-02-21T03:19:57;101449.03;;;8.98;77.19
76201;BME280;64981;52.930;9.266;2024-02-21T03:22:24;101454.69;;;8.93;77.23
76201;BME280;64981;52.930;9.266;2024-02-21T03:24:49;101472.50;;;9.01;77.22
76201;BME280;64981;52.930;9.266;2024-02-21T03:27:15;101484.56;;;9.03;76.89
76201;BME280;64981;52.930;9.266;2024-02-21T03:29:40;101486.47;;;8.92;77.44
76201;BME280;64981;52.930;9.266;2024-02-21T03:32:06;101497.03;;;9.01;77.33
76201;BME280;64981;52.930;9.266;2024-02-21T03:34:32;101479.16;;;9.05;77.16
76201;BME280;64981;52.930;9.266;2024-02-21T03:36:57;101480.28;;;9.02;77.34
76201;BME280;64981;52.930;9.266;2024-02-21T03:39:24;101475.69;;;9.04;77.26
76201;BME280;64981;52.930;9.266;2024-02-21T03:41:50;101485.66;;;9.01;77.46
76201;BME280;64981;52.930;9.266;2024-02-21T03:44:15;101485.97;;;9.07;77.81
76201;BME280;64981;52.930;9.266;2024-02-21T03:46:41;101478.59;;;9.01;77.41
76201;BME280;64981;52.930;9.266;2024-02-21T03:49:06;101479.00;;;9.06;77.27
76201;BME280;64981;52.930;9.266;2024-02-21T03:51:32;101466.38;;;9.00;77.39
76201;BME280;64981;52.930;9.266;2024-02-21T03:53:58;101470.84;;;9.09;76.93
76201;BME280;64981;52.930;9.266;2024-02-21T03:56:23;101470.66;;;8.92;77.63
76201;BME280;64981;52.930;9.266;2024-02-21T03:58:49;101476.38;;;9.06;77.42
76201;BME280;64981;52.930;9.266;2024-02-21T04:01:16;101470.97;;;8.98;77.81
76201;BME280;64981;52.930;9.266;2024-02-21T04:03:43;101463.19;;;9.06;77.44
76201;BME280;64981;52.930;9.266;2024-02-21T04:06:09;101464.47;;;9.02;78.23
76201;BME280;64981;52.930;9.266;2024-02-21T04:08:35;101459.19;;;9.02;78.59
76201;BME280;64981;52.930;9.266;2024-02-21T04:11:01;101459.72;;;9.06;78.25
76201;BME280;64981;52.930;9.266;2024-02-21T04:13:27;101457.34;;;8.84;79.80
76201;BME280;64981;52.930;9.266;2024-02-21T04:15:52;101462.19;;;8.88;79.45
76201;BME280;64981;52.930;9.266;2024-02-21T04:18:18;101455.69;;;8.92;79.32
76201;BME280;64981;52.930;9.266;2024-02-21T04:20:43;101466.22;;;8.92;79.28
76201;BME280;64981;52.930;9.266;2024-02-21T04:23:09;101461.06;;;8.91;79.40
76201;BME280;64981;52.930;9.266;2024-02-21T04:25:35;101455.00;;;9.00;79.30
76201;BME280;64981;52.930;9.266;2024-02-21T04:28:01;101454.06;;;9.10;78.80
76201;BME280;64981;52.930;9.266;2024-02-21T04:30:27;101457.59;;;8.90;79.85
76201;BME280;64981;52.930;9.266;2024-02-21T04:32:52;101469.25;;;8.88;79.84
76201;BME280;64981;52.930;9.266;2024-02-21T04:35:18;101463.13;;;8.87;79.76
76201;BME280;64981;52.930;9.266;2024-02-21T04:37:43;101419.75;;;8.91;78.46
76201;BME280;64981;52.930;9.266;2024-02-21T04:40:10;101452.25;;;9.01;78.82
76201;BME280;64981;52.930;9.266;2024-02-21T04:42:35;101443.13;;;9.05;79.10
76201;BME280;64981;52.930;9.266;2024-02-21T04:45:01;101450.28;;;9.03;79.40
76201;BME280;64981;52.930;9.266;2024-02-21T04:47:27;101446.97;;;9.01;79.55
76201;BME280;64981;52.930;9.266;2024-02-21T04:49:53;101453.06;;;8.92;79.91
76201;BME280;64981;52.930;9.266;2024-02-21T04:52:19;101442.78;;;8.89;80.21
76201;BME280;64981;52.930;9.266;2024-02-21T04:54:44;101438.63;;;8.87;80.33
76201;BME280;64981;52.930;9.266;2024-02-21T04:57:10;101429.44;;;8.81;80.46
76201;BME280;64981;52.930;9.266;2024-02-21T04:59:36;101426.00;;;8.90;80.18
76201;BME280;64981;52.930;9.266;2024-02-21T05:02:02;101435.72;;;8.90;80.52
76201;BME280;64981;52.930;9.266;2024-02-21T05:04:28;101432.13;;;9.00;80.19
76201;BME280;64981;52.930;9.266;2024-02-21T05:06:53;101430.31;;;8.91;81.19
76201;BME280;64981;52.930;9.266;2024-02-21T05:09:20;101433.63;;;8.93;81.12
76201;BME280;64981;52.930;9.266;2024-02-21T05:11:45;101425.88;;;8.92;81.23
76201;BME280;64981;52.930;9.266;2024-02-21T05:14:11;101420.97;;;8.78;82.17
76201;BME280;64981;52.930;9.266;2024-02-21T05:16:38;101412.25;;;8.77;82.39
76201;BME280;64981;52.930;9.266;2024-02-21T05:19:04;101430.31;;;8.91;81.65
76201;BME280;64981;52.930;9.266;2024-02-21T05:21:29;101401.19;;;8.62;82.57
76201;BME280;64981;52.930;9.266;2024-02-21T05:23:55;101420.00;;;8.79;82.12
76201;BME280;64981;52.930;9.266;2024-02-21T05:26:22;101407.25;;;8.74;82.14
76201;BME280;64981;52.930;9.266;2024-02-21T05:28:48;101410.56;;;8.76;82.11
76201;BME280;64981;52.930;9.266;2024-02-21T05:31:16;101407.78;;;8.78;81.49
76201;BME280;64981;52.930;9.266;2024-02-21T05:33:43;101407.63;;;8.69;82.33
76201;BME280;64981;52.930;9.266;2024-02-21T05:36:09;101424.84;;;8.53;82.99
76201;BME280;64981;52.930;9.266;2024-02-21T05:38:34;101416.53;;;8.78;82.31
76201;BME280;64981;52.930;9.266;2024-02-21T05:41:01;101410.44;;;8.87;81.81
76201;BME280;64981;52.930;9.266;2024-02-21T05:43:26;101416.16;;;8.92;81.85
76201;BME280;64981;52.930;9.266;2024-02-21T05:45:52;101410.03;;;8.82;82.61
76201;BME280;64981;52.930;9.266;2024-02-21T05:48:17;101408.94;;;8.85;82.45
76201;BME280;64981;52.930;9.266;2024-02-21T05:50:43;101408.34;;;8.81;82.47
76201;BME280;64981;52.930;9.266;2024-02-21T05:53:09;101399.84;;;8.68;83.04
76201;BME280;64981;52.930;9.266;2024-02-21T05:55:35;101396.00;;;8.72;83.16
76201;BME280;64981;52.930;9.266;2024-02-21T05:58:01;101404.19;;;8.79;82.87
76201;BME280;64981;52.930;9.266;2024-02-21T06:00:28;101399.22;;;8.85;82.70
76201;BME280;64981;52.930;9.266;2024-02-21T06:02:53;101400.16;;;8.75;82.78
76201;BME280;64981;52.930;9.266;2024-02-21T06:05:19;101395.31;;;8.70;82.72
76201;BME280;64981;52.930;9.266;2024-02-21T06:07:45;101404.16;;;8.69;83.19
76201;BME280;64981;52.930;9.266;2024-02-21T06:10:11;101400.97;;;8.65;83.04
76201;BME280;64981;52.930;9.266;2024-02-21T06:12:36;101399.34;;;8.74;82.38
76201;BME280;64981;52.930;9.266;2024-02-21T06:15:02;101406.53;;;8.72;82.66
76201;BME280;64981;52.930;9.266;2024-02-21T06:17:28;101397.94;;;8.70;83.12
76201;BME280;64981;52.930;9.266;2024-02-21T06:19:54;101395.34;;;8.80;82.58
76201;BME280;64981;52.930;9.266;2024-02-21T06:22:19;101389.91;;;8.81;82.52
76201;BME280;64981;52.930;9.266;2024-02-21T06:24:45;101402.97;;;8.83;82.46
76201;BME280;64981;52.930;9.266;2024-02-21T06:27:11;101396.44;;;8.77;82.70
76201;BME280;64981;52.930;9.266;2024-02-21T06:29:37;101400.88;;;8.77;82.91
76201;BME280;64981;52.930;9.266;2024-02-21T06:32:03;101378.81;;;8.78;82.50
76201;BME280;64981;52.930;9.266;2024-02-21T06:34:29;101397.19;;;8.98;81.99
76201;BME280;64981;52.930;9.266;2024-02-21T06:36:54;101394.94;;;8.94;81.80
76201;BME280;64981;52.930;9.266;2024-02-21T06:39:20;101386.31;;;8.82;82.33
76201;BME280;64981;52.930;9.266;2024-02-21T06:41:47;101385.63;;;8.80;82.70
76201;BME280;64981;52.930;9.266;2024-02-21T06:44:13;101388.69;;;8.85;82.58
76201;BME280;64981;52.930;9.266;2024-02-21T06:46:38;101379.53;;;8.80;82.58
76201;BME280;64981;52.930;9.266;2024-02-21T06:49:04;101393.59;;;8.99;81.65
76201;BME280;64981;52.930;9.266;2024-02-21T06:51:30;101389.38;;;8.87;82.20
76201;BME280;64981;52.930;9.266;2024-02-21T06:53:56;101400.63;;;8.89;82.06
76201;BME280;64981;52.930;9.266;2024-02-21T06:56:24;101404.91;;;8.90;81.81
76201;BME280;64981;52.930;9.266;2024-02-21T06:58:54;101403.84;;;8.93;81.72
76201;BME280;64981;52.930;9.266;2024-02-21T07:01:21;101410.75;;;8.94;81.72
76201;BME280;64981;52.930;9.266;2024-02-21T07:03:46;101402.28;;;8.90;81.77
76201;BME280;64981;52.930;9.266;2024-02-21T07:06:12;101409.22;;;8.91;82.00
76201;BME280;64981;52.930;9.266;2024-02-21T07:08:38;101401.19;;;8.93;81.46
76201;BME280;64981;52.930;9.266;2024-02-21T07:11:04;101405.63;;;8.92;81.61
76201;BME280;64981;52.930;9.266;2024-02-21T07:13:32;101404.66;;;9.03;80.95
76201;BME280;64981;52.930;9.266;2024-02-21T07:15:58;101403.81;;;8.83;82.44
76201;BME280;64981;52.930;9.266;2024-02-21T07:18:23;101397.06;;;9.09;81.08
76201;BME280;64981;52.930;9.266;2024-02-21T07:20:51;101406.63;;;9.01;81.39
76201;BME280;64981;52.930;9.266;2024-02-21T07:23:18;101398.59;;;9.02;81.68
76201;BME280;64981;52.930;9.266;2024-02-21T07:25:44;101408.31;;;9.11;81.55
76201;BME280;64981;52.930;9.266;2024-02-21T07:28:10;101412.28;;;9.06;81.82
76201;BME280;64981;52.930;9.266;2024-02-21T07:30:35;101408.00;;;8.95;82.29
76201;BME280;64981;52.930;9.266;2024-02-21T07:33:01;101418.34;;;8.87;83.25
76201;BME280;64981;52.930;9.266;2024-02-21T07:35:27;101414.78;;;8.98;82.04
76201;BME280;64981;52.930;9.266;2024-02-21T07:37:53;101430.91;;;9.04;81.83
76201;BME280;64981;52.930;9.266;2024-02-21T07:40:18;101427.47;;;9.23;81.09
76201;BME280;64981;52.930;9.266;2024-02-21T07:42:44;101418.84;;;9.11;81.55
76201;BME280;64981;52.930;9.266;2024-02-21T07:45:10;101424.78;;;9.04;81.78
76201;BME280;64981;52.930;9.266;2024-02-21T07:47:36;101414.25;;;9.04;81.87
76201;BME280;64981;52.930;9.266;2024-02-21T07:50:03;101421.19;;;9.05;82.14
76201;BME280;64981;52.930;9.266;2024-02-21T07:52:29;101419.41;;;9.05;82.08
76201;BME280;64981;52.930;9.266;2024-02-21T07:54:54;101413.97;;;9.07;82.50
76201;BME280;64981;52.930;9.266;2024-02-21T07:57:20;101414.81;;;9.07;82.15
76201;BME280;64981;52.930;9.266;2024-02-21T07:59:46;101416.31;;;9.00;82.69
76201;BME280;64981;52.930;9.266;2024-02-21T08:02:16;101419.94;;;8.99;82.59
76201;BME280;64981;52.930;9.266;2024-02-21T08:04:42;101421.97;;;8.86;83.35
76201;BME280;64981;52.930;9.266;2024-02-21T08:07:08;101406.16;;;8.86;83.17
76201;BME280;64981;52.930;9.266;2024-02-21T08:09:34;101404.94;;;9.00;82.26
76201;BME280;64981;52.930;9.266;2024-02-21T08:12:00;101408.38;;;8.91;82.40
76201;BME280;64981;52.930;9.266;2024-02-21T08:14:26;101398.69;;;8.91;82.09
76201;BME280;64981;52.930;9.266;2024-02-21T08:16:52;101405.63;;;8.92;82.00
76201;BME280;64981;52.930;9.266;2024-02-21T08:19:20;101392.59;;;9.00;81.06
76201;BME280;64981;52.930;9.266;2024-02-21T08:21:46;101388.16;;;8.91;81.48
76201;BME280;64981;52.930;9.266;2024-02-21T08:24:13;101392.31;;;9.03;80.80
76201;BME280;64981;52.930;9.266;2024-02-21T08:26:41;101386.38;;;9.01;80.67
76201;BME280;64981;52.930;9.266;2024-02-21T08:29:07;101398.88;;;8.99;80.86
76201;BME280;64981;52.930;9.266;2024-02-21T08:31:33;101389.88;;;9.11;79.77
76201;BME280;64981;52.930;9.266;2024-02-21T08:34:00;101386.66;;;8.98;80.61
76201;BME280;64981;52.930;9.266;2024-02-21T08:36:30;101388.31;;;9.09;80.03
76201;BME280;64981;52.930;9.266;2024-02-21T08:38:56;101375.41;;;9.06;79.86
76201;BME280;64981;52.930;9.266;2024-02-21T08:41:23;101375.16;;;8.99;79.82
76201;BME280;64981;52.930;9.266;2024-02-21T08:43:51;101356.84;;;9.07;79.42
76201;BME280;64981;52.930;9.266;2024-02-21T08:46:18;101363.78;;;9.27;78.43
76201;BME280;64981;52.930;9.266;2024-02-21T08:48:44;101372.66;;;9.27;79.14
76201;BME280;64981;52.930;9.266;2024-02-21T08:51:12;101370.03;;;9.36;78.05
76201;BME280;64981;52.930;9.266;2024-02-21T08:53:38;101361.41;;;9.34;78.20
76201;BME280;64981;52.930;9.266;2024-02-21T08:56:04;101368.25;;;9.37;78.41
76201;BME280;64981;52.930;9.266;2024-02-21T08:58:30;101355.47;;;9.22;78.47
76201;BME280;64981;52.930;9.266;2024-02-21T09:00:56;101359.91;;;9.41;78.09
76201;BME280;64981;52.930;9.266;2024-02-21T09:03:22;101371.13;;;9.43;78.08
76201;BME280;64981;52.930;9.266;2024-02-21T09:05:48;101357.81;;;9.45;77.64
76201;BME280;64981;52.930;9.266;2024-02-21T09:08:14;101359.31;;;9.57;77.45
76201;BME280;64981;52.930;9.266;2024-02-21T09:10:40;101364.47;;;9.68;77.10
76201;BME280;64981;52.930;9.266;2024-02-21T09:13:06;101340.75;;;9.58;77.04
76201;BME280;64981;52.930;9.266;2024-02-21T09:15:33;101334.94;;;9.45;77.58
76201;BME280;64981;52.930;9.266;2024-02-21T09:17:59;101356.56;;;9.58;77.57
76201;BME280;64981;52.930;9.266;2024-02-21T09:20:24;101339.34;;;9.64;76.45
76201;BME280;64981;52.930;9.266;2024-02-21T09:22:50;101348.78;;;9.66;76.62
76201;BME280;64981;52.930;9.266;2024-02-21T09:25:16;101336.25;;;9.68;76.79
76201;BME280;64981;52.930;9.266;2024-02-21T09:27:44;101328.94;;;9.43;77.09
76201;BME280;64981;52.930;9.266;2024-02-21T09:30:10;101342.66;;;9.66;76.80
76201;BME280;64981;52.930;9.266;2024-02-21T09:32:36;101342.66;;;9.66;76.64
76201;BME280;64981;52.930;9.266;2024-02-21T09:35:03;101318.81;;;9.58;75.85
76201;BME280;64981;52.930;9.266;2024-02-21T09:37:29;101336.97;;;9.70;75.86
76201;BME280;64981;52.930;9.266;2024-02-21T09:39:54;101328.59;;;9.85;75.41
76201;BME280;64981;52.930;9.266;2024-02-21T09:42:21;101317.78;;;9.68;76.19
76201;BME280;64981;52.930;9.266;2024-02-21T09:44:48;101321.16;;;9.70;75.80
76201;BME280;64981;52.930;9.266;2024-02-21T09:47:22;101318.78;;;9.67;76.17
76201;BME280;64981;52.930;9.266;2024-02-21T09:49:49;101318.09;;;9.65;75.87
76201;BME280;64981;52.930;9.266;2024-02-21T09:52:19;101322.09;;;9.79;75.34
76201;BME280;64981;52.930;9.266;2024-02-21T09:54:47;101315.13;;;9.78;75.32
76201;BME280;64981;52.930;9.266;2024-02-21T09:57:15;101314.16;;;9.89;74.69
76201;BME280;64981;52.930;9.266;2024-02-21T09:59:41;101313.56;;;9.95;74.36
76201;BME280;64981;52.930;9.266;2024-02-21T10:02:07;101309.44;;;9.83;74.93
76201;BME280;64981;52.930;9.266;2024-02-21T10:04:33;101299.31;;;9.78;74.63
76201;BME280;64981;52.930;9.266;2024-02-21T10:06:59;101293.34;;;9.76;73.32
76201;BME280;64981;52.930;9.266;2024-02-21T10:09:25;101306.91;;;9.91;74.00
76201;BME280;64981;52.930;9.266;2024-02-21T10:11:56;101306.91;;;9.91;73.97
76201;BME280;64981;52.930;9.266;2024-02-21T10:14:22;101295.38;;;9.92;72.98
76201;BME280;64981;52.930;9.266;2024-02-21T10:16:56;101292.38;;;9.77;73.55
76201;BME280;64981;52.930;9.266;2024-02-21T10:19:22;101295.66;;;9.98;72.71
76201;BME280;64981;52.930;9.266;2024-02-21T10:22:00;101290.63;;;10.05;72.73
76201;BME280;64981;52.930;9.266;2024-02-21T10:24:27;101281.06;;;9.94;72.50
76201;BME280;64981;52.930;9.266;2024-02-21T10:27:04;101280.44;;;10.10;72.46
76201;BME280;64981;52.930;9.266;2024-02-21T10:29:31;101282.41;;;10.08;72.32
76201;BME280;64981;52.930;9.266;2024-02-21T10:32:06;101277.97;;;10.08;72.05
76201;BME280;64981;52.930;9.266;2024-02-21T10:34:33;101273.28;;;10.02;71.99
76201;BME280;64981;52.930;9.266;2024-02-21T10:37:01;101257.06;;;9.88;72.05
76201;BME280;64981;52.930;9.266;2024-02-21T10:39:27;101268.13;;;10.01;72.05
76201;BME280;64981;52.930;9.266;2024-02-21T10:41:55;101268.06;;;10.20;71.07
76201;BME280;64981;52.930;9.266;2024-02-21T10:44:25;101251.66;;;10.16;70.79
76201;BME280;64981;52.930;9.266;2024-02-21T10:46:55;101266.66;;;10.25;70.92
76201;BME280;64981;52.930;9.266;2024-02-21T10:49:26;101256.41;;;10.13;70.90
76201;BME280;64981;52.930;9.266;2024-02-21T10:51:59;101256.59;;;10.02;71.64
76201;BME280;64981;52.930;9.266;2024-02-21T10:54:47;101256.09;;;10.16;70.64
76201;BME280;64981;52.930;9.266;2024-02-21T10:57:13;101251.88;;;10.05;71.20
76201;BME280;64981;52.930;9.266;2024-02-21T10:59:40;101243.06;;;10.42;69.29
76201;BME280;64981;52.930;9.266;2024-02-21T11:02:06;101238.56;;;10.52;69.13
76201;BME280;64981;52.930;9.266;2024-02-21T11:04:34;101238.25;;;10.55;68.98
76201;BME280;64981;52.930;9.266;2024-02-21T11:07:03;101243.34;;;10.83;68.21
76201;BME280;64981;52.930;9.266;2024-02-21T11:09:31;101233.75;;;10.82;67.65
76201;BME280;64981;52.930;9.266;2024-02-21T11:11:58;101231.31;;;10.89;67.24
76201;BME280;64981;52.930;9.266;2024-02-21T11:14:27;101228.59;;;10.99;67.02
76201;BME280;64981;52.930;9.266;2024-02-21T11:16:54;101219.00;;;11.15;66.28
76201;BME280;64981;52.930;9.266;2024-02-21T11:19:23;101220.06;;;11.05;66.62
76201;BME280;64981;52.930;9.266;2024-02-21T11:21:51;101217.84;;;11.00;67.18
76201;BME280;64981;52.930;9.266;2024-02-21T11:24:27;101205.38;;;11.10;66.10
76201;BME280;64981;52.930;9.266;2024-02-21T11:26:54;101202.75;;;11.10;65.63
76201;BME280;64981;52.930;9.266;2024-02-21T11:29:24;101196.59;;;11.27;64.59
76201;BME280;64981;52.930;9.266;2024-02-21T11:31:51;101192.66;;;11.06;64.98
76201;BME280;64981;52.930;9.266;2024-02-21T11:34:19;101189.69;;;11.09;64.37
76201;BME280;64981;52.930;9.266;2024-02-21T11:36:49;101179.78;;;11.11;64.70
76201;BME280;64981;52.930;9.266;2024-02-21T11:39:23;101185.13;;;11.19;64.57
76201;BME280;64981;52.930;9.266;2024-02-21T11:42:00;101172.50;;;11.30;64.47
76201;BME280;64981;52.930;9.266;2024-02-21T11:44:26;101153.91;;;11.22;64.08
76201;BME280;64981;52.930;9.266;2024-02-21T11:46:52;101155.88;;;11.20;65.03
76201;BME280;64981;52.930;9.266;2024-02-21T11:49:17;101145.28;;;11.12;64.96
76201;BME280;64981;52.930;9.266;2024-02-21T11:51:43;101143.28;;;11.14;64.20
76201;BME280;64981;52.930;9.266;2024-02-21T11:54:11;101144.44;;;11.12;64.33
76201;BME280;64981;52.930;9.266;2024-02-21T11:56:38;101137.22;;;10.96;64.47
76201;BME280;64981;52.930;9.266;2024-02-21T11:59:04;101115.41;;;10.94;64.17
76201;BME280;64981;52.930;9.266;2024-02-21T12:01:32;101134.31;;;11.07;64.43
76201;BME280;64981;52.930;9.266;2024-02-21T12:03:57;101127.31;;;10.98;64.33
76201;BME280;64981;52.930;9.266;2024-02-21T12:06:23;101130.38;;;10.85;64.79
76201;BME280;64981;52.930;9.266;2024-02-21T12:08:48;101133.47;;;11.07;63.99
76201;BME280;64981;52.930;9.266;2024-02-21T12:11:20;101131.63;;;10.99;64.31
76201;BME280;64981;52.930;9.266;2024-02-21T12:13:46;101116.47;;;11.09;64.18
76201;BME280;64981;52.930;9.266;2024-02-21T12:16:15;101117.47;;;11.08;64.62
76201;BME280;64981;52.930;9.266;2024-02-21T12:18:41;101116.22;;;10.95;64.11
76201;BME280;64981;52.930;9.266;2024-02-21T12:21:07;101114.94;;;10.99;63.84
76201;BME280;64981;52.930;9.266;2024-02-21T12:23:33;101115.72;;;11.17;63.15
76201;BME280;64981;52.930;9.266;2024-02-21T12:25:59;101113.56;;;11.12;63.36
76201;BME280;64981;52.930;9.266;2024-02-21T12:28:25;101102.34;;;11.18;62.79
76201;BME280;64981;52.930;9.266;2024-02-21T12:30:51;101103.09;;;11.36;62.31
76201;BME280;64981;52.930;9.266;2024-02-21T12:33:18;101103.75;;;11.38;62.00
76201;BME280;64981;52.930;9.266;2024-02-21T12:35:43;101091.66;;;11.28;61.38
76201;BME280;64981;52.930;9.266;2024-02-21T12:38:09;101096.66;;;11.05;62.36
76201;BME280;64981;52.930;9.266;2024-02-21T12:40:36;101080.19;;;11.19;60.68
76201;BME280;64981;52.930;9.266;2024-02-21T12:43:01;101064.41;;;11.02;61.90
76201;BME280;64981;52.930;9.266;2024-02-21T12:45:28;101077.28;;;11.30;61.25
76201;BME280;64981;52.930;9.266;2024-02-21T12:47:54;101083.66;;;11.54;60.88
76201;BME280;64981;52.930;9.266;2024-02-21T12:50:20;101073.38;;;11.51;59.63
76201;BME280;64981;52.930;9.266;2024-02-21T12:52:46;101079.38;;;11.53;60.12